sensor_id;sensor_type;location;lat;lon;timestamp;temperature;humidity
34135;DHT22;20410;55.578;12.968;2023-12-20T00:02:13;5.00;99.90
34135;DHT22;20410;55.578;12.968;2023-12-20T00:04:39;5.00;94.00
34135;DHT22;20410;55.578;12.968;2023-12-20T00:07:04;5.10;94.70
34135;DHT22;20410;55.578;12.968;2023-12-20T00:09:30;5.10;94.40
34135;DHT22;20410;55.578;12.968;2023-12-20T00:11:56;5.10;94.40
34135;DHT22;20410;55.578;12.968;2023-12-20T00:14:22;5.10;97.50
34135;DHT22;20410;55.578;12.968;2023-12-20T00:16:48;5.10;93.20
34135;DHT22;20410;55.578;12.968;2023-12-20T00:19:14;5.10;91.60
34135;DHT22;20410;55.578;12.968;2023-12-20T00:21:39;5.20;90.60
34135;DHT22;20410;55.578;12.968;2023-12-20T00:24:05;5.20;92.50
34135;DHT22;20410;55.578;12.968;2023-12-20T00:26:30;5.20;93.70
34135;DHT22;20410;55.578;12.968;2023-12-20T00:28:56;5.20;89.20
34135;DHT22;20410;55.578;12.968;2023-12-20T00:31:21;5.20;85.50
34135;DHT22;20410;55.578;12.968;2023-12-20T00:33:47;5.20;91.30
34135;DHT22;20410;55.578;12.968;2023-12-20T00:36:13;5.20;70.90
34135;DHT22;20410;55.578;12.968;2023-12-20T00:38:38;5.20;86.10
34135;DHT22;20410;55.578;12.968;2023-12-20T00:41:04;5.20;74.50
34135;DHT22;20410;55.578;12.968;2023-12-20T00:43:29;5.30;81.10
34135;DHT22;20410;55.578;12.968;2023-12-20T00:45:55;5.20;71.00
34135;DHT22;20410;55.578;12.968;2023-12-20T00:48:21;5.20;57.70
34135;DHT22;20410;55.578;12.968;2023-12-20T00:50:46;5.20;76.60
34135;DHT22;20410;55.578;12.968;2023-12-20T00:53:12;5.30;74.20
34135;DHT22;20410;55.578;12.968;2023-12-20T00:55:37;5.30;57.60
34135;DHT22;20410;55.578;12.968;2023-12-20T00:58:03;5.30;76.30
34135;DHT22;20410;55.578;12.968;2023-12-20T01:00:29;5.40;80.30
34135;DHT22;20410;55.578;12.968;2023-12-20T01:02:54;5.40;72.80
34135;DHT22;20410;55.578;12.968;2023-12-20T01:05:20;5.40;64.80
34135;DHT22;20410;55.578;12.968;2023-12-20T01:07:48;5.40;49.30
34135;DHT22;20410;55.578;12.968;2023-12-20T01:10:14;5.30;45.20
34135;DHT22;20410;55.578;12.968;2023-12-20T01:12:40;5.30;47.60
34135;DHT22;20410;55.578;12.968;2023-12-20T01:15:05;5.30;43.50
34135;DHT22;20410;55.578;12.968;2023-12-20T01:17:31;5.30;59.10
34135;DHT22;20410;55.578;12.968;2023-12-20T01:19:57;5.40;54.50
34135;DHT22;20410;55.578;12.968;2023-12-20T01:22:23;5.30;43.40
34135;DHT22;20410;55.578;12.968;2023-12-20T01:24:49;5.40;56.30
34135;DHT22;20410;55.578;12.968;2023-12-20T01:27:14;5.40;56.90
34135;DHT22;20410;55.578;12.968;2023-12-20T01:29:40;5.40;65.60
34135;DHT22;20410;55.578;12.968;2023-12-20T01:32:06;5.50;62.10
34135;DHT22;20410;55.578;12.968;2023-12-20T01:34:31;5.50;64.40
34135;DHT22;20410;55.578;12.968;2023-12-20T01:36:57;5.50;50.90
34135;DHT22;20410;55.578;12.968;2023-12-20T01:39:23;5.50;46.10
34135;DHT22;20410;55.578;12.968;2023-12-20T01:41:48;5.50;48.80
34135;DHT22;20410;55.578;12.968;2023-12-20T01:44:14;5.50;36.10
34135;DHT22;20410;55.578;12.968;2023-12-20T01:46:39;5.50;46.20
34135;DHT22;20410;55.578;12.968;2023-12-20T01:49:06;5.50;48.00
34135;DHT22;20410;55.578;12.968;2023-12-20T01:51:32;5.50;36.50
34135;DHT22;20410;55.578;12.968;2023-12-20T01:53:59;5.50;28.80
34135;DHT22;20410;55.578;12.968;2023-12-20T01:56:26;5.40;41.20
34135;DHT22;20410;55.578;12.968;2023-12-20T01:58:53;5.50;38.80
34135;DHT22;20410;55.578;12.968;2023-12-20T02:01:19;5.50;37.60
34135;DHT22;20410;55.578;12.968;2023-12-20T02:03:45;5.50;48.70
34135;DHT22;20410;55.578;12.968;2023-12-20T02:06:11;5.50;48.60
34135;DHT22;20410;55.578;12.968;2023-12-20T02:08:37;5.50;60.60
34135;DHT22;20410;55.578;12.968;2023-12-20T02:11:02;5.60;50.80
34135;DHT22;20410;55.578;12.968;2023-12-20T02:13:28;5.60;52.40
34135;DHT22;20410;55.578;12.968;2023-12-20T02:15:54;5.50;33.60
34135;DHT22;20410;55.578;12.968;2023-12-20T02:18:20;5.50;42.10
34135;DHT22;20410;55.578;12.968;2023-12-20T02:20:46;5.50;48.60
34135;DHT22;20410;55.578;12.968;2023-12-20T02:23:11;5.50;46.30
34135;DHT22;20410;55.578;12.968;2023-12-20T02:25:37;5.50;30.20
34135;DHT22;20410;55.578;12.968;2023-12-20T02:28:03;5.50;43.80
34135;DHT22;20410;55.578;12.968;2023-12-20T02:30:29;5.60;38.20
34135;DHT22;20410;55.578;12.968;2023-12-20T02:32:55;5.50;29.20
34135;DHT22;20410;55.578;12.968;2023-12-20T02:35:21;5.50;33.40
34135;DHT22;20410;55.578;12.968;2023-12-20T02:37:46;5.50;43.70
34135;DHT22;20410;55.578;12.968;2023-12-20T02:40:12;5.50;34.30
34135;DHT22;20410;55.578;12.968;2023-12-20T02:42:37;5.50;46.20
34135;DHT22;20410;55.578;12.968;2023-12-20T02:45:03;5.50;51.40
34135;DHT22;20410;55.578;12.968;2023-12-20T02:47:29;5.60;51.30
34135;DHT22;20410;55.578;12.968;2023-12-20T02:49:55;5.50;51.50
34135;DHT22;20410;55.578;12.968;2023-12-20T02:52:22;5.60;45.40
34135;DHT22;20410;55.578;12.968;2023-12-20T02:54:48;5.60;48.00
34135;DHT22;20410;55.578;12.968;2023-12-20T02:57:14;5.60;48.80
34135;DHT22;20410;55.578;12.968;2023-12-20T02:59:39;5.60;44.00
34135;DHT22;20410;55.578;12.968;2023-12-20T03:02:05;5.60;45.90
34135;DHT22;20410;55.578;12.968;2023-12-20T03:04:30;5.70;57.60
34135;DHT22;20410;55.578;12.968;2023-12-20T03:06:56;5.70;48.90
34135;DHT22;20410;55.578;12.968;2023-12-20T03:09:21;5.70;38.50
34135;DHT22;20410;55.578;12.968;2023-12-20T03:11:47;5.70;32.30
34135;DHT22;20410;55.578;12.968;2023-12-20T03:14:12;5.70;37.80
34135;DHT22;20410;55.578;12.968;2023-12-20T03:16:38;5.70;40.40
34135;DHT22;20410;55.578;12.968;2023-12-20T03:19:03;5.70;38.80
34135;DHT22;20410;55.578;12.968;2023-12-20T03:21:29;5.70;41.00
34135;DHT22;20410;55.578;12.968;2023-12-20T03:23:54;5.70;23.90
34135;DHT22;20410;55.578;12.968;2023-12-20T03:26:20;5.70;37.60
34135;DHT22;20410;55.578;12.968;2023-12-20T03:28:47;5.70;29.60
34135;DHT22;20410;55.578;12.968;2023-12-20T03:31:13;5.70;42.10
34135;DHT22;20410;55.578;12.968;2023-12-20T03:33:39;5.70;33.30
34135;DHT22;20410;55.578;12.968;2023-12-20T03:36:05;5.70;33.90
34135;DHT22;20410;55.578;12.968;2023-12-20T03:38:30;5.70;25.90
34135;DHT22;20410;55.578;12.968;2023-12-20T03:40:56;5.70;29.70
34135;DHT22;20410;55.578;12.968;2023-12-20T03:43:21;5.70;32.80
34135;DHT22;20410;55.578;12.968;2023-12-20T03:45:47;5.70;33.60
34135;DHT22;20410;55.578;12.968;2023-12-20T03:48:12;5.70;38.10
34135;DHT22;20410;55.578;12.968;2023-12-20T03:50:38;5.70;54.40
34135;DHT22;20410;55.578;12.968;2023-12-20T03:53:03;5.70;57.70
34135;DHT22;20410;55.578;12.968;2023-12-20T03:55:29;5.70;62.70
34135;DHT22;20410;55.578;12.968;2023-12-20T03:57:54;5.80;67.90
34135;DHT22;20410;55.578;12.968;2023-12-20T04:00:20;5.80;69.10
34135;DHT22;20410;55.578;12.968;2023-12-20T04:02:46;5.80;70.10
34135;DHT22;20410;55.578;12.968;2023-12-20T04:05:12;5.80;64.50
34135;DHT22;20410;55.578;12.968;2023-12-20T04:07:37;5.70;57.50
34135;DHT22;20410;55.578;12.968;2023-12-20T04:10:03;5.70;90.40
34135;DHT22;20410;55.578;12.968;2023-12-20T04:12:29;5.80;89.60
34135;DHT22;20410;55.578;12.968;2023-12-20T04:14:56;5.80;74.20
34135;DHT22;20410;55.578;12.968;2023-12-20T04:17:21;5.80;83.30
34135;DHT22;20410;55.578;12.968;2023-12-20T04:19:48;5.80;73.40
34135;DHT22;20410;55.578;12.968;2023-12-20T04:22:14;5.80;76.90
34135;DHT22;20410;55.578;12.968;2023-12-20T04:24:39;5.70;78.00
34135;DHT22;20410;55.578;12.968;2023-12-20T04:27:07;5.80;87.60
34135;DHT22;20410;55.578;12.968;2023-12-20T04:29:33;5.80;87.60
34135;DHT22;20410;55.578;12.968;2023-12-20T04:31:59;5.80;92.20
34135;DHT22;20410;55.578;12.968;2023-12-20T04:34:24;5.80;87.20
34135;DHT22;20410;55.578;12.968;2023-12-20T04:36:50;5.80;88.50
34135;DHT22;20410;55.578;12.968;2023-12-20T04:39:15;5.90;92.20
34135;DHT22;20410;55.578;12.968;2023-12-20T04:41:41;5.90;81.40
34135;DHT22;20410;55.578;12.968;2023-12-20T04:44:06;5.90;89.60
34135;DHT22;20410;55.578;12.968;2023-12-20T04:46:32;5.90;80.00
34135;DHT22;20410;55.578;12.968;2023-12-20T04:48:58;5.90;79.00
34135;DHT22;20410;55.578;12.968;2023-12-20T04:51:23;5.90;73.20
34135;DHT22;20410;55.578;12.968;2023-12-20T04:53:49;6.00;79.50
34135;DHT22;20410;55.578;12.968;2023-12-20T04:56:14;6.00;64.30
34135;DHT22;20410;55.578;12.968;2023-12-20T04:58:40;6.00;72.10
34135;DHT22;20410;55.578;12.968;2023-12-20T05:01:06;6.00;77.40
34135;DHT22;20410;55.578;12.968;2023-12-20T05:03:32;6.00;67.50
34135;DHT22;20410;55.578;12.968;2023-12-20T05:05:58;6.10;65.40
34135;DHT22;20410;55.578;12.968;2023-12-20T05:08:23;6.10;66.70
34135;DHT22;20410;55.578;12.968;2023-12-20T05:10:50;6.10;70.50
34135;DHT22;20410;55.578;12.968;2023-12-20T05:13:16;6.10;64.50
34135;DHT22;20410;55.578;12.968;2023-12-20T05:15:42;6.10;65.20
34135;DHT22;20410;55.578;12.968;2023-12-20T05:18:07;6.10;63.40
34135;DHT22;20410;55.578;12.968;2023-12-20T05:20:33;6.10;57.80
34135;DHT22;20410;55.578;12.968;2023-12-20T05:22:58;6.10;59.70
34135;DHT22;20410;55.578;12.968;2023-12-20T05:25:24;6.20;67.10
34135;DHT22;20410;55.578;12.968;2023-12-20T05:27:50;6.10;49.70
34135;DHT22;20410;55.578;12.968;2023-12-20T05:30:16;6.10;52.30
34135;DHT22;20410;55.578;12.968;2023-12-20T05:32:42;6.20;56.10
34135;DHT22;20410;55.578;12.968;2023-12-20T05:35:07;6.20;54.30
34135;DHT22;20410;55.578;12.968;2023-12-20T05:37:33;6.30;48.40
34135;DHT22;20410;55.578;12.968;2023-12-20T05:39:58;6.30;38.20
34135;DHT22;20410;55.578;12.968;2023-12-20T05:42:24;6.30;42.30
34135;DHT22;20410;55.578;12.968;2023-12-20T05:44:49;6.30;48.40
34135;DHT22;20410;55.578;12.968;2023-12-20T05:47:15;6.30;45.90
34135;DHT22;20410;55.578;12.968;2023-12-20T05:49:43;6.30;47.80
34135;DHT22;20410;55.578;12.968;2023-12-20T05:52:09;6.40;40.30
34135;DHT22;20410;55.578;12.968;2023-12-20T05:54:34;6.40;42.10
34135;DHT22;20410;55.578;12.968;2023-12-20T05:57:00;6.30;41.70
34135;DHT22;20410;55.578;12.968;2023-12-20T05:59:26;6.40;46.00
34135;DHT22;20410;55.578;12.968;2023-12-20T06:01:51;6.30;42.20
34135;DHT22;20410;55.578;12.968;2023-12-20T06:04:17;6.30;37.40
34135;DHT22;20410;55.578;12.968;2023-12-20T06:06:43;6.30;40.50
34135;DHT22;20410;55.578;12.968;2023-12-20T06:09:09;6.30;40.40
34135;DHT22;20410;55.578;12.968;2023-12-20T06:11:34;6.30;29.00
34135;DHT22;20410;55.578;12.968;2023-12-20T06:14:00;6.30;24.30
34135;DHT22;20410;55.578;12.968;2023-12-20T06:16:25;6.20;25.70
34135;DHT22;20410;55.578;12.968;2023-12-20T06:18:51;6.30;33.20
34135;DHT22;20410;55.578;12.968;2023-12-20T06:21:17;6.20;27.50
34135;DHT22;20410;55.578;12.968;2023-12-20T06:23:42;6.20;26.70
34135;DHT22;20410;55.578;12.968;2023-12-20T06:26:08;6.20;19.90
34135;DHT22;20410;55.578;12.968;2023-12-20T06:28:33;6.20;22.40
34135;DHT22;20410;55.578;12.968;2023-12-20T06:30:59;6.20;10.80
34135;DHT22;20410;55.578;12.968;2023-12-20T06:33:26;6.20;14.30
34135;DHT22;20410;55.578;12.968;2023-12-20T06:35:51;6.20;16.00
34135;DHT22;20410;55.578;12.968;2023-12-20T06:38:18;6.20;4.90
34135;DHT22;20410;55.578;12.968;2023-12-20T06:40:44;6.20;1.00
34135;DHT22;20410;55.578;12.968;2023-12-20T06:43:09;6.20;1.00
34135;DHT22;20410;55.578;12.968;2023-12-20T06:45:35;6.20;1.00
34135;DHT22;20410;55.578;12.968;2023-12-20T06:48:00;6.20;1.00
34135;DHT22;20410;55.578;12.968;2023-12-20T06:50:26;6.20;1.00
34135;DHT22;20410;55.578;12.968;2023-12-20T06:52:53;6.30;1.00
34135;DHT22;20410;55.578;12.968;2023-12-20T06:55:18;6.20;1.00
34135;DHT22;20410;55.578;12.968;2023-12-20T06:57:44;6.20;1.00
34135;DHT22;20410;55.578;12.968;2023-12-20T07:00:11;6.20;1.00
34135;DHT22;20410;55.578;12.968;2023-12-20T07:02:37;6.30;1.00
34135;DHT22;20410;55.578;12.968;2023-12-20T07:05:03;6.30;1.00
34135;DHT22;20410;55.578;12.968;2023-12-20T07:07:29;6.30;1.00
34135;DHT22;20410;55.578;12.968;2023-12-20T07:09:55;6.20;1.00
34135;DHT22;20410;55.578;12.968;2023-12-20T07:12:20;6.20;1.00
34135;DHT22;20410;55.578;12.968;2023-12-20T07:14:46;6.30;1.00
34135;DHT22;20410;55.578;12.968;2023-12-20T07:17:12;6.30;1.00
34135;DHT22;20410;55.578;12.968;2023-12-20T07:19:39;6.30;1.00
34135;DHT22;20410;55.578;12.968;2023-12-20T07:22:06;6.20;1.00
34135;DHT22;20410;55.578;12.968;2023-12-20T07:24:32;6.30;1.00
34135;DHT22;20410;55.578;12.968;2023-12-20T07:26:59;6.30;1.00
34135;DHT22;20410;55.578;12.968;2023-12-20T07:29:24;6.20;1.00
34135;DHT22;20410;55.578;12.968;2023-12-20T07:31:50;6.30;1.00
34135;DHT22;20410;55.578;12.968;2023-12-20T07:34:17;6.30;1.00
34135;DHT22;20410;55.578;12.968;2023-12-20T07:36:43;6.20;1.00
34135;DHT22;20410;55.578;12.968;2023-12-20T07:39:08;6.20;3.40
34135;DHT22;20410;55.578;12.968;2023-12-20T07:41:34;6.20;8.60
34135;DHT22;20410;55.578;12.968;2023-12-20T07:43:59;6.20;13.10
34135;DHT22;20410;55.578;12.968;2023-12-20T07:46:25;6.20;9.00
34135;DHT22;20410;55.578;12.968;2023-12-20T07:48:51;6.20;14.80
34135;DHT22;20410;55.578;12.968;2023-12-20T07:51:16;6.30;12.70
34135;DHT22;20410;55.578;12.968;2023-12-20T07:53:42;6.30;1.80
34135;DHT22;20410;55.578;12.968;2023-12-20T07:56:18;6.30;5.50
34135;DHT22;20410;55.578;12.968;2023-12-20T07:58:44;6.20;5.90
34135;DHT22;20410;55.578;12.968;2023-12-20T08:01:10;6.10;1.00
34135;DHT22;20410;55.578;12.968;2023-12-20T08:03:36;6.10;1.00
34135;DHT22;20410;55.578;12.968;2023-12-20T08:06:02;6.10;1.00
34135;DHT22;20410;55.578;12.968;2023-12-20T08:08:28;6.00;1.00
34135;DHT22;20410;55.578;12.968;2023-12-20T08:10:53;5.90;1.00
34135;DHT22;20410;55.578;12.968;2023-12-20T08:13:19;5.80;2.60
34135;DHT22;20410;55.578;12.968;2023-12-20T08:15:44;5.80;2.00
34135;DHT22;20410;55.578;12.968;2023-12-20T08:18:10;5.70;7.10
34135;DHT22;20410;55.578;12.968;2023-12-20T08:20:35;5.80;7.10
34135;DHT22;20410;55.578;12.968;2023-12-20T08:23:01;5.70;5.50
34135;DHT22;20410;55.578;12.968;2023-12-20T08:25:26;5.70;1.00
34135;DHT22;20410;55.578;12.968;2023-12-20T08:27:53;5.60;3.10
34135;DHT22;20410;55.578;12.968;2023-12-20T08:30:18;5.60;17.40
34135;DHT22;20410;55.578;12.968;2023-12-20T08:32:50;5.60;31.30
34135;DHT22;20410;55.578;12.968;2023-12-20T08:35:15;5.60;23.80
34135;DHT22;20410;55.578;12.968;2023-12-20T08:37:41;5.60;19.60
34135;DHT22;20410;55.578;12.968;2023-12-20T08:40:07;5.60;20.90
34135;DHT22;20410;55.578;12.968;2023-12-20T08:42:32;5.60;23.50
34135;DHT22;20410;55.578;12.968;2023-12-20T08:44:58;5.60;26.70
34135;DHT22;20410;55.578;12.968;2023-12-20T08:47:24;5.60;15.50
34135;DHT22;20410;55.578;12.968;2023-12-20T08:49:50;5.60;9.50
34135;DHT22;20410;55.578;12.968;2023-12-20T08:52:16;5.60;16.50
34135;DHT22;20410;55.578;12.968;2023-12-20T08:54:41;5.50;13.20
34135;DHT22;20410;55.578;12.968;2023-12-20T08:57:07;5.50;9.60
34135;DHT22;20410;55.578;12.968;2023-12-20T08:59:33;5.50;11.10
34135;DHT22;20410;55.578;12.968;2023-12-20T09:01:58;5.50;18.20
34135;DHT22;20410;55.578;12.968;2023-12-20T09:04:24;5.50;25.50
34135;DHT22;20410;55.578;12.968;2023-12-20T09:06:50;5.60;28.40
34135;DHT22;20410;55.578;12.968;2023-12-20T09:09:15;5.70;35.30
34135;DHT22;20410;55.578;12.968;2023-12-20T09:11:41;5.80;48.80
34135;DHT22;20410;55.578;12.968;2023-12-20T09:14:07;5.80;33.20
34135;DHT22;20410;55.578;12.968;2023-12-20T09:16:33;5.90;31.90
34135;DHT22;20410;55.578;12.968;2023-12-20T09:18:58;6.00;41.00
34135;DHT22;20410;55.578;12.968;2023-12-20T09:21:24;6.10;42.10
34135;DHT22;20410;55.578;12.968;2023-12-20T09:23:50;6.10;30.60
34135;DHT22;20410;55.578;12.968;2023-12-20T09:26:15;6.10;26.90
34135;DHT22;20410;55.578;12.968;2023-12-20T09:28:41;6.10;31.70
34135;DHT22;20410;55.578;12.968;2023-12-20T09:31:06;6.20;42.00
34135;DHT22;20410;55.578;12.968;2023-12-20T09:33:35;6.30;46.30
34135;DHT22;20410;55.578;12.968;2023-12-20T09:36:00;6.30;33.40
34135;DHT22;20410;55.578;12.968;2023-12-20T09:38:26;6.30;38.40
34135;DHT22;20410;55.578;12.968;2023-12-20T09:40:52;6.30;29.60
34135;DHT22;20410;55.578;12.968;2023-12-20T09:43:20;6.30;15.20
34135;DHT22;20410;55.578;12.968;2023-12-20T09:45:49;6.30;13.00
34135;DHT22;20410;55.578;12.968;2023-12-20T09:48:18;6.40;9.40
34135;DHT22;20410;55.578;12.968;2023-12-20T09:50:45;6.40;9.40
34135;DHT22;20410;55.578;12.968;2023-12-20T09:53:15;6.40;5.30
34135;DHT22;20410;55.578;12.968;2023-12-20T09:55:41;6.40;3.90
34135;DHT22;20410;55.578;12.968;2023-12-20T09:58:07;6.50;10.10
34135;DHT22;20410;55.578;12.968;2023-12-20T10:00:34;6.50;2.10
34135;DHT22;20410;55.578;12.968;2023-12-20T10:03:00;6.50;3.40
34135;DHT22;20410;55.578;12.968;2023-12-20T10:05:31;6.50;1.00
34135;DHT22;20410;55.578;12.968;2023-12-20T10:07:58;6.50;1.00
34135;DHT22;20410;55.578;12.968;2023-12-20T10:10:24;6.60;1.00
34135;DHT22;20410;55.578;12.968;2023-12-20T10:13:07;6.50;1.00
34135;DHT22;20410;55.578;12.968;2023-12-20T10:15:34;6.50;3.20
34135;DHT22;20410;55.578;12.968;2023-12-20T10:18:01;6.50;13.50
34135;DHT22;20410;55.578;12.968;2023-12-20T10:20:27;6.50;18.90
34135;DHT22;20410;55.578;12.968;2023-12-20T10:22:58;6.50;13.80
34135;DHT22;20410;55.578;12.968;2023-12-20T10:25:24;6.50;13.70
34135;DHT22;20410;55.578;12.968;2023-12-20T10:27:51;6.50;22.60
34135;DHT22;20410;55.578;12.968;2023-12-20T10:30:33;6.50;14.60
34135;DHT22;20410;55.578;12.968;2023-12-20T10:32:59;6.50;12.00
34135;DHT22;20410;55.578;12.968;2023-12-20T10:35:24;6.40;8.00
34135;DHT22;20410;55.578;12.968;2023-12-20T10:37:52;6.40;13.10
34135;DHT22;20410;55.578;12.968;2023-12-20T10:40:20;6.40;21.20
34135;DHT22;20410;55.578;12.968;2023-12-20T10:42:46;6.40;18.60
34135;DHT22;20410;55.578;12.968;2023-12-20T10:45:12;6.30;29.40
34135;DHT22;20410;55.578;12.968;2023-12-20T10:47:39;6.40;41.40
34135;DHT22;20410;55.578;12.968;2023-12-20T10:50:06;6.30;44.90
34135;DHT22;20410;55.578;12.968;2023-12-20T10:52:34;6.40;53.70
34135;DHT22;20410;55.578;12.968;2023-12-20T10:55:01;6.40;62.40
34135;DHT22;20410;55.578;12.968;2023-12-20T10:57:27;6.50;41.90
34135;DHT22;20410;55.578;12.968;2023-12-20T10:59:54;6.40;43.30
34135;DHT22;20410;55.578;12.968;2023-12-20T11:02:20;6.40;48.60
34135;DHT22;20410;55.578;12.968;2023-12-20T11:04:56;6.40;46.90
34135;DHT22;20410;55.578;12.968;2023-12-20T11:07:35;6.30;54.30
34135;DHT22;20410;55.578;12.968;2023-12-20T11:10:23;6.30;60.90
34135;DHT22;20410;55.578;12.968;2023-12-20T11:13:10;6.30;61.10
34135;DHT22;20410;55.578;12.968;2023-12-20T11:15:37;6.30;66.00
34135;DHT22;20410;55.578;12.968;2023-12-20T11:18:04;6.30;74.70
34135;DHT22;20410;55.578;12.968;2023-12-20T11:20:40;6.30;72.60
34135;DHT22;20410;55.578;12.968;2023-12-20T11:23:06;6.30;67.90
34135;DHT22;20410;55.578;12.968;2023-12-20T11:25:54;6.20;68.00
34135;DHT22;20410;55.578;12.968;2023-12-20T11:28:24;6.20;47.40
34135;DHT22;20410;55.578;12.968;2023-12-20T11:30:55;6.10;38.20
34135;DHT22;20410;55.578;12.968;2023-12-20T11:33:32;6.00;38.50
34135;DHT22;20410;55.578;12.968;2023-12-20T11:36:00;5.90;61.90
34135;DHT22;20410;55.578;12.968;2023-12-20T11:38:26;5.90;39.80
34135;DHT22;20410;55.578;12.968;2023-12-20T11:40:54;5.80;29.40
34135;DHT22;20410;55.578;12.968;2023-12-20T11:46:03;5.70;20.00
34135;DHT22;20410;55.578;12.968;2023-12-20T11:48:30;5.70;24.50
34135;DHT22;20410;55.578;12.968;2023-12-20T11:50:56;5.70;20.80
34135;DHT22;20410;55.578;12.968;2023-12-20T11:53:22;5.80;33.80
34135;DHT22;20410;55.578;12.968;2023-12-20T11:55:49;5.90;21.80
34135;DHT22;20410;55.578;12.968;2023-12-20T11:58:15;5.90;31.10
34135;DHT22;20410;55.578;12.968;2023-12-20T12:00:42;5.90;28.50
34135;DHT22;20410;55.578;12.968;2023-12-20T12:03:08;6.00;33.40
34135;DHT22;20410;55.578;12.968;2023-12-20T12:05:34;6.00;23.90
34135;DHT22;20410;55.578;12.968;2023-12-20T12:08:01;6.00;26.70
34135;DHT22;20410;55.578;12.968;2023-12-20T12:10:26;6.00;23.10
34135;DHT22;20410;55.578;12.968;2023-12-20T12:12:52;6.00;22.80
34135;DHT22;20410;55.578;12.968;2023-12-20T12:15:17;6.10;27.60
34135;DHT22;20410;55.578;12.968;2023-12-20T12:17:43;6.10;40.50
34135;DHT22;20410;55.578;12.968;2023-12-20T12:20:09;6.10;35.10
34135;DHT22;20410;55.578;12.968;2023-12-20T12:22:35;6.10;29.40
34135;DHT22;20410;55.578;12.968;2023-12-20T12:25:12;6.10;23.60
34135;DHT22;20410;55.578;12.968;2023-12-20T12:27:40;6.10;18.40
34135;DHT22;20410;55.578;12.968;2023-12-20T12:30:06;6.10;14.50
34135;DHT22;20410;55.578;12.968;2023-12-20T12:32:35;6.10;7.30
34135;DHT22;20410;55.578;12.968;2023-12-20T12:35:03;6.10;11.70
34135;DHT22;20410;55.578;12.968;2023-12-20T12:37:33;6.10;3.10
34135;DHT22;20410;55.578;12.968;2023-12-20T12:39:59;6.10;6.30
34135;DHT22;20410;55.578;12.968;2023-12-20T12:42:24;6.10;1.90
34135;DHT22;20410;55.578;12.968;2023-12-20T12:44:54;6.10;1.00
34135;DHT22;20410;55.578;12.968;2023-12-20T12:47:19;6.10;1.00
34135;DHT22;20410;55.578;12.968;2023-12-20T12:49:45;6.10;1.00
34135;DHT22;20410;55.578;12.968;2023-12-20T12:52:10;6.10;1.00
34135;DHT22;20410;55.578;12.968;2023-12-20T12:54:36;6.10;1.00
34135;DHT22;20410;55.578;12.968;2023-12-20T12:57:02;6.10;1.00
34135;DHT22;20410;55.578;12.968;2023-12-20T12:59:27;6.00;1.00
34135;DHT22;20410;55.578;12.968;2023-12-20T13:01:53;6.00;1.00
34135;DHT22;20410;55.578;12.968;2023-12-20T13:04:19;6.00;1.00
34135;DHT22;20410;55.578;12.968;2023-12-20T13:06:44;6.00;1.00
34135;DHT22;20410;55.578;12.968;2023-12-20T13:09:10;6.00;1.00
34135;DHT22;20410;55.578;12.968;2023-12-20T13:11:35;5.90;1.00
34135;DHT22;20410;55.578;12.968;2023-12-20T13:14:01;5.90;1.00
34135;DHT22;20410;55.578;12.968;2023-12-20T13:16:26;5.90;1.00
34135;DHT22;20410;55.578;12.968;2023-12-20T13:18:52;6.00;1.00
34135;DHT22;20410;55.578;12.968;2023-12-20T13:21:18;6.00;1.00
34135;DHT22;20410;55.578;12.968;2023-12-20T13:23:43;6.00;1.00
34135;DHT22;20410;55.578;12.968;2023-12-20T13:26:09;6.00;1.00
34135;DHT22;20410;55.578;12.968;2023-12-20T13:28:34;6.10;1.00
34135;DHT22;20410;55.578;12.968;2023-12-20T13:31:00;6.10;1.00
34135;DHT22;20410;55.578;12.968;2023-12-20T13:33:25;6.10;1.00
34135;DHT22;20410;55.578;12.968;2023-12-20T13:35:51;6.10;1.00
34135;DHT22;20410;55.578;12.968;2023-12-20T13:38:17;6.20;1.00
34135;DHT22;20410;55.578;12.968;2023-12-20T13:40:43;6.20;1.00
34135;DHT22;20410;55.578;12.968;2023-12-20T13:43:08;6.20;1.00
34135;DHT22;20410;55.578;12.968;2023-12-20T13:45:35;6.10;1.00
34135;DHT22;20410;55.578;12.968;2023-12-20T13:48:01;6.00;1.00
34135;DHT22;20410;55.578;12.968;2023-12-20T13:50:26;6.00;1.00
34135;DHT22;20410;55.578;12.968;2023-12-20T13:52:52;6.00;1.00
34135;DHT22;20410;55.578;12.968;2023-12-20T13:55:18;5.90;1.00
34135;DHT22;20410;55.578;12.968;2023-12-20T13:57:47;5.80;1.00
34135;DHT22;20410;55.578;12.968;2023-12-20T14:00:14;5.80;1.00
34135;DHT22;20410;55.578;12.968;2023-12-20T14:02:41;5.80;1.00
34135;DHT22;20410;55.578;12.968;2023-12-20T14:05:07;5.80;1.00
34135;DHT22;20410;55.578;12.968;2023-12-20T14:07:33;5.80;1.00
34135;DHT22;20410;55.578;12.968;2023-12-20T14:09:59;5.90;1.00
34135;DHT22;20410;55.578;12.968;2023-12-20T14:12:25;5.90;1.00
34135;DHT22;20410;55.578;12.968;2023-12-20T14:14:50;5.90;1.00
34135;DHT22;20410;55.578;12.968;2023-12-20T14:17:17;5.90;1.00
34135;DHT22;20410;55.578;12.968;2023-12-20T14:19:43;5.90;1.00
34135;DHT22;20410;55.578;12.968;2023-12-20T14:22:09;5.90;1.00
34135;DHT22;20410;55.578;12.968;2023-12-20T14:24:35;5.80;1.00
34135;DHT22;20410;55.578;12.968;2023-12-20T14:27:01;5.80;1.00
34135;DHT22;20410;55.578;12.968;2023-12-20T14:29:27;5.70;1.00
34135;DHT22;20410;55.578;12.968;2023-12-20T14:31:52;5.70;1.00
34135;DHT22;20410;55.578;12.968;2023-12-20T14:34:18;5.60;1.00
34135;DHT22;20410;55.578;12.968;2023-12-20T14:36:43;5.50;1.00
34135;DHT22;20410;55.578;12.968;2023-12-20T14:39:09;5.40;1.00
34135;DHT22;20410;55.578;12.968;2023-12-20T14:41:38;5.40;1.00
34135;DHT22;20410;55.578;12.968;2023-12-20T14:44:05;5.40;1.00
34135;DHT22;20410;55.578;12.968;2023-12-20T14:46:31;5.40;1.00
34135;DHT22;20410;55.578;12.968;2023-12-20T14:48:56;5.30;1.00
34135;DHT22;20410;55.578;12.968;2023-12-20T14:51:22;5.30;1.00
34135;DHT22;20410;55.578;12.968;2023-12-20T14:53:48;5.30;1.00
34135;DHT22;20410;55.578;12.968;2023-12-20T14:56:13;5.30;1.00
34135;DHT22;20410;55.578;12.968;2023-12-20T14:58:40;5.30;1.00
34135;DHT22;20410;55.578;12.968;2023-12-20T15:01:05;5.30;1.00
34135;DHT22;20410;55.578;12.968;2023-12-20T15:03:34;5.30;1.00
34135;DHT22;20410;55.578;12.968;2023-12-20T15:06:00;5.30;1.00
34135;DHT22;20410;55.578;12.968;2023-12-20T15:08:26;5.30;1.00
34135;DHT22;20410;55.578;12.968;2023-12-20T15:10:51;5.30;1.00
34135;DHT22;20410;55.578;12.968;2023-12-20T15:13:17;5.30;1.00
34135;DHT22;20410;55.578;12.968;2023-12-20T15:15:42;5.30;1.00
34135;DHT22;20410;55.578;12.968;2023-12-20T15:18:08;5.30;1.00
34135;DHT22;20410;55.578;12.968;2023-12-20T15:20:33;5.30;1.00
34135;DHT22;20410;55.578;12.968;2023-12-20T15:22:59;5.30;1.00
34135;DHT22;20410;55.578;12.968;2023-12-20T15:25:31;5.30;1.00
34135;DHT22;20410;55.578;12.968;2023-12-20T15:27:57;5.30;1.00
34135;DHT22;20410;55.578;12.968;2023-12-20T15:30:22;5.30;1.00
34135;DHT22;20410;55.578;12.968;2023-12-20T15:32:50;5.30;1.00